Airfield :
LOGIN :

Register | Disclaimer

   EN    FR    IT 

 










Legend :    VFR   Marginal VFR   IFR   Intensive IFR   Very Intensive IFR
Visi :
Ceiling :
>= 8 km
>= 3000ft
5 to 8 km
1000 to 3000 ft
1500m to 5 km
500 to 1000 ft
800 to 1500m
200 to 500 ft
< 800m
< 200 ft
Symbols :   Thunderstorms  Fog  Heavy snow  Heavy precipitations  Wind > 20 kt
SIGMETs :     Misc.  Thunderstorms  Icing  Turbulence  Mountain Waves  Volcanic Ashes







- Airport Elevation : 390 ft
- IATA code : NQY
- Download approach charts


EGHQ - Newquay

CURRENT METAR :
  • 200920Z 23006KT 0200 R30/0275 FG VV/// 08/08 Q1033

EXPIRED METARs :
  • 200850Z 24005KT 0200 R30/0225 FG VV/// 08/08 Q1033
  • 200820Z 23005KT 200V270 0600 R30/0500 FG BKN003 07/07 Q1033
  • 200750Z 22005KT 200V260 0800 R30/0550 -RADZ FG OVC002 08/08 Q1032
  • 200720Z 24006KT 0800 R30/P0900 -RADZ FG OVC002 08/07 Q1032
  • 200650Z 26006KT 0900 R30/0450 -RADZ FG OVC002 07/07 Q1032

TAF AMD TAF EGHQ
Valid from the 20 at 09:00 until the 20 at 18:00 UTC


200900Z 2009/2018 27005KT 0200 -RADZ FG OVC000
BECMG 2009/2012 9999 NSW BKN018
TEMPO 2012/2018 BKN014
No reported NOTAMs for that airfield.



MET'MAP, your aeronautical weather chart ! - Copyright ORBIFLY December 2007 - Disclaimer

ORBIFLY MET'MAP TEAM :

Programming & Development : Alexandra Zaïnal
Concept & Development : Baudouin d'Aumeries
Co-Development & Prog : Marc-Olivier Méhu
Technical & hardware support : Manuel Goepfert

Contact : metmap@orbifly.com




SOURCES & CREDITS :

   NOAA